sensor_id;sensor_type;location;lat;lon;timestamp;P1;durP1;ratioP1;P2;durP2;ratioP2
55423;SDS011;41294;42.666;23.350;2024-01-30T00:00:16;7.57;;;5.60;;
55423;SDS011;41294;42.666;23.350;2024-01-30T00:02:41;6.60;;;5.83;;
55423;SDS011;41294;42.666;23.350;2024-01-30T00:05:08;9.17;;;6.50;;
55423;SDS011;41294;42.666;23.350;2024-01-30T00:07:33;11.80;;;6.27;;
55423;SDS011;41294;42.666;23.350;2024-01-30T00:09:59;9.67;;;6.77;;
55423;SDS011;41294;42.666;23.350;2024-01-30T00:12:25;10.57;;;7.30;;
55423;SDS011;41294;42.666;23.350;2024-01-30T00:14:51;9.73;;;6.90;;
55423;SDS011;41294;42.666;23.350;2024-01-30T00:17:16;8.37;;;6.43;;
55423;SDS011;41294;42.666;23.350;2024-01-30T00:19:42;8.43;;;6.13;;
55423;SDS011;41294;42.666;23.350;2024-01-30T00:22:07;9.57;;;6.17;;
55423;SDS011;41294;42.666;23.350;2024-01-30T00:24:33;8.53;;;6.33;;
55423;SDS011;41294;42.666;23.350;2024-01-30T00:26:58;9.63;;;6.50;;
55423;SDS011;41294;42.666;23.350;2024-01-30T00:29:24;7.67;;;6.43;;
55423;SDS011;41294;42.666;23.350;2024-01-30T00:31:55;7.83;;;5.80;;
55423;SDS011;41294;42.666;23.350;2024-01-30T00:34:20;7.43;;;6.23;;
55423;SDS011;41294;42.666;23.350;2024-01-30T00:36:46;6.37;;;5.60;;
55423;SDS011;41294;42.666;23.350;2024-01-30T00:39:11;8.47;;;6.40;;
55423;SDS011;41294;42.666;23.350;2024-01-30T00:41:37;6.77;;;5.33;;
55423;SDS011;41294;42.666;23.350;2024-01-30T00:44:02;6.07;;;5.20;;
55423;SDS011;41294;42.666;23.350;2024-01-30T00:46:28;7.50;;;5.43;;
55423;SDS011;41294;42.666;23.350;2024-01-30T00:48:53;6.00;;;5.27;;
55423;SDS011;41294;42.666;23.350;2024-01-30T00:51:19;6.37;;;5.20;;
55423;SDS011;41294;42.666;23.350;2024-01-30T00:53:45;6.67;;;5.53;;
55423;SDS011;41294;42.666;23.350;2024-01-30T00:56:10;7.13;;;5.50;;
55423;SDS011;41294;42.666;23.350;2024-01-30T00:58:36;6.57;;;5.13;;
55423;SDS011;41294;42.666;23.350;2024-01-30T01:01:01;8.50;;;5.20;;
55423;SDS011;41294;42.666;23.350;2024-01-30T01:03:27;5.80;;;5.20;;
55423;SDS011;41294;42.666;23.350;2024-01-30T01:05:52;6.67;;;5.30;;
55423;SDS011;41294;42.666;23.350;2024-01-30T01:08:18;6.53;;;5.30;;
55423;SDS011;41294;42.666;23.350;2024-01-30T01:10:43;5.77;;;4.47;;
55423;SDS011;41294;42.666;23.350;2024-01-30T01:13:09;6.10;;;4.83;;
55423;SDS011;41294;42.666;23.350;2024-01-30T01:15:34;5.60;;;4.63;;
55423;SDS011;41294;42.666;23.350;2024-01-30T01:18:00;5.57;;;4.70;;
55423;SDS011;41294;42.666;23.350;2024-01-30T01:20:25;5.70;;;5.03;;
55423;SDS011;41294;42.666;23.350;2024-01-30T01:22:51;6.77;;;5.00;;
55423;SDS011;41294;42.666;23.350;2024-01-30T01:25:17;6.67;;;5.33;;
55423;SDS011;41294;42.666;23.350;2024-01-30T01:27:43;6.77;;;5.07;;
55423;SDS011;41294;42.666;23.350;2024-01-30T01:30:10;6.43;;;4.93;;
55423;SDS011;41294;42.666;23.350;2024-01-30T01:32:36;6.20;;;4.87;;
55423;SDS011;41294;42.666;23.350;2024-01-30T01:35:03;5.70;;;4.60;;
55423;SDS011;41294;42.666;23.350;2024-01-30T01:37:30;6.03;;;5.03;;
55423;SDS011;41294;42.666;23.350;2024-01-30T01:39:56;5.63;;;4.77;;
55423;SDS011;41294;42.666;23.350;2024-01-30T01:42:22;5.87;;;4.90;;
55423;SDS011;41294;42.666;23.350;2024-01-30T01:44:47;6.70;;;5.07;;
55423;SDS011;41294;42.666;23.350;2024-01-30T01:47:13;5.60;;;4.57;;
55423;SDS011;41294;42.666;23.350;2024-01-30T01:49:39;6.07;;;4.70;;
55423;SDS011;41294;42.666;23.350;2024-01-30T01:52:05;5.67;;;4.47;;
55423;SDS011;41294;42.666;23.350;2024-01-30T01:54:32;8.10;;;5.00;;
55423;SDS011;41294;42.666;23.350;2024-01-30T01:56:58;7.13;;;4.73;;
55423;SDS011;41294;42.666;23.350;2024-01-30T01:59:24;7.20;;;5.00;;
55423;SDS011;41294;42.666;23.350;2024-01-30T02:01:50;6.33;;;4.73;;
55423;SDS011;41294;42.666;23.350;2024-01-30T02:04:18;5.63;;;4.83;;
55423;SDS011;41294;42.666;23.350;2024-01-30T02:06:43;5.37;;;4.87;;
55423;SDS011;41294;42.666;23.350;2024-01-30T02:09:09;6.63;;;4.70;;
55423;SDS011;41294;42.666;23.350;2024-01-30T02:11:35;6.17;;;4.70;;
55423;SDS011;41294;42.666;23.350;2024-01-30T02:14:04;6.17;;;5.10;;
55423;SDS011;41294;42.666;23.350;2024-01-30T02:16:30;6.37;;;5.10;;
55423;SDS011;41294;42.666;23.350;2024-01-30T02:18:59;6.80;;;4.60;;
55423;SDS011;41294;42.666;23.350;2024-01-30T02:21:24;6.90;;;4.73;;
55423;SDS011;41294;42.666;23.350;2024-01-30T02:23:50;6.73;;;4.57;;
55423;SDS011;41294;42.666;23.350;2024-01-30T02:26:17;5.80;;;5.00;;
55423;SDS011;41294;42.666;23.350;2024-01-30T02:28:42;6.60;;;4.90;;
55423;SDS011;41294;42.666;23.350;2024-01-30T02:31:08;8.77;;;5.10;;
55423;SDS011;41294;42.666;23.350;2024-01-30T02:33:33;5.27;;;4.37;;
55423;SDS011;41294;42.666;23.350;2024-01-30T02:35:59;7.47;;;5.10;;
55423;SDS011;41294;42.666;23.350;2024-01-30T02:38:25;6.10;;;4.67;;
55423;SDS011;41294;42.666;23.350;2024-01-30T02:40:51;5.23;;;4.73;;
55423;SDS011;41294;42.666;23.350;2024-01-30T02:43:17;5.57;;;4.73;;
55423;SDS011;41294;42.666;23.350;2024-01-30T02:45:43;5.97;;;4.53;;
55423;SDS011;41294;42.666;23.350;2024-01-30T02:48:09;5.53;;;4.77;;
55423;SDS011;41294;42.666;23.350;2024-01-30T02:50:34;5.10;;;4.37;;
55423;SDS011;41294;42.666;23.350;2024-01-30T02:52:59;5.07;;;4.50;;
55423;SDS011;41294;42.666;23.350;2024-01-30T02:55:25;6.33;;;4.60;;
55423;SDS011;41294;42.666;23.350;2024-01-30T02:57:50;4.80;;;4.30;;
55423;SDS011;41294;42.666;23.350;2024-01-30T03:00:16;6.27;;;4.83;;
55423;SDS011;41294;42.666;23.350;2024-01-30T03:02:41;4.80;;;4.30;;
55423;SDS011;41294;42.666;23.350;2024-01-30T03:05:07;5.57;;;4.47;;
55423;SDS011;41294;42.666;23.350;2024-01-30T03:07:33;6.27;;;4.93;;
55423;SDS011;41294;42.666;23.350;2024-01-30T03:09:59;5.90;;;5.07;;
55423;SDS011;41294;42.666;23.350;2024-01-30T03:12:24;5.57;;;4.50;;
55423;SDS011;41294;42.666;23.350;2024-01-30T03:14:50;4.90;;;4.27;;
55423;SDS011;41294;42.666;23.350;2024-01-30T03:17:15;4.83;;;4.30;;
55423;SDS011;41294;42.666;23.350;2024-01-30T03:19:41;7.97;;;4.53;;
55423;SDS011;41294;42.666;23.350;2024-01-30T03:22:06;5.30;;;4.33;;
55423;SDS011;41294;42.666;23.350;2024-01-30T03:24:32;4.73;;;4.23;;
55423;SDS011;41294;42.666;23.350;2024-01-30T03:26:57;6.60;;;5.03;;
55423;SDS011;41294;42.666;23.350;2024-01-30T03:29:23;5.30;;;4.70;;
55423;SDS011;41294;42.666;23.350;2024-01-30T03:31:48;7.43;;;4.70;;
55423;SDS011;41294;42.666;23.350;2024-01-30T03:34:14;7.17;;;5.03;;
55423;SDS011;41294;42.666;23.350;2024-01-30T03:36:39;5.30;;;4.80;;
55423;SDS011;41294;42.666;23.350;2024-01-30T03:39:05;4.77;;;4.10;;
55423;SDS011;41294;42.666;23.350;2024-01-30T03:41:31;6.30;;;3.90;;
55423;SDS011;41294;42.666;23.350;2024-01-30T03:43:56;5.63;;;4.50;;
55423;SDS011;41294;42.666;23.350;2024-01-30T03:46:22;5.60;;;4.90;;
55423;SDS011;41294;42.666;23.350;2024-01-30T03:48:47;6.40;;;4.47;;
55423;SDS011;41294;42.666;23.350;2024-01-30T03:51:13;5.60;;;4.30;;
55423;SDS011;41294;42.666;23.350;2024-01-30T03:53:40;5.93;;;4.33;;
55423;SDS011;41294;42.666;23.350;2024-01-30T03:56:06;6.40;;;5.00;;
55423;SDS011;41294;42.666;23.350;2024-01-30T03:58:32;5.23;;;4.20;;
55423;SDS011;41294;42.666;23.350;2024-01-30T04:00:58;6.23;;;4.20;;
55423;SDS011;41294;42.666;23.350;2024-01-30T04:03:23;5.93;;;4.63;;
55423;SDS011;41294;42.666;23.350;2024-01-30T04:05:49;9.37;;;4.40;;
55423;SDS011;41294;42.666;23.350;2024-01-30T04:08:16;5.90;;;4.40;;
55423;SDS011;41294;42.666;23.350;2024-01-30T04:10:41;7.00;;;4.30;;
55423;SDS011;41294;42.666;23.350;2024-01-30T04:13:07;5.03;;;4.27;;
55423;SDS011;41294;42.666;23.350;2024-01-30T04:15:32;6.77;;;4.60;;
55423;SDS011;41294;42.666;23.350;2024-01-30T04:17:58;4.77;;;4.00;;
55423;SDS011;41294;42.666;23.350;2024-01-30T04:20:24;5.10;;;4.23;;
55423;SDS011;41294;42.666;23.350;2024-01-30T04:22:50;8.10;;;4.30;;
55423;SDS011;41294;42.666;23.350;2024-01-30T04:25:16;4.73;;;4.07;;
55423;SDS011;41294;42.666;23.350;2024-01-30T04:27:41;5.50;;;4.50;;
55423;SDS011;41294;42.666;23.350;2024-01-30T04:30:07;6.77;;;4.23;;
55423;SDS011;41294;42.666;23.350;2024-01-30T04:32:33;8.03;;;4.87;;
55423;SDS011;41294;42.666;23.350;2024-01-30T04:35:00;5.53;;;4.07;;
55423;SDS011;41294;42.666;23.350;2024-01-30T04:37:25;4.70;;;3.90;;
55423;SDS011;41294;42.666;23.350;2024-01-30T04:39:51;4.90;;;4.00;;
55423;SDS011;41294;42.666;23.350;2024-01-30T04:42:17;6.30;;;4.40;;
55423;SDS011;41294;42.666;23.350;2024-01-30T04:44:42;6.03;;;4.27;;
55423;SDS011;41294;42.666;23.350;2024-01-30T04:47:08;4.67;;;3.70;;
55423;SDS011;41294;42.666;23.350;2024-01-30T04:49:36;5.77;;;4.37;;
55423;SDS011;41294;42.666;23.350;2024-01-30T04:52:01;8.17;;;4.73;;
55423;SDS011;41294;42.666;23.350;2024-01-30T04:54:27;5.00;;;4.40;;
55423;SDS011;41294;42.666;23.350;2024-01-30T04:56:52;7.57;;;4.40;;
55423;SDS011;41294;42.666;23.350;2024-01-30T04:59:18;7.30;;;4.27;;
55423;SDS011;41294;42.666;23.350;2024-01-30T05:01:44;5.47;;;4.13;;
55423;SDS011;41294;42.666;23.350;2024-01-30T05:04:09;9.10;;;4.60;;
55423;SDS011;41294;42.666;23.350;2024-01-30T05:06:36;8.30;;;5.77;;
55423;SDS011;41294;42.666;23.350;2024-01-30T05:09:01;7.90;;;4.97;;
55423;SDS011;41294;42.666;23.350;2024-01-30T05:11:29;7.37;;;5.03;;
55423;SDS011;41294;42.666;23.350;2024-01-30T05:13:55;5.60;;;4.43;;
55423;SDS011;41294;42.666;23.350;2024-01-30T05:16:20;8.40;;;4.90;;
55423;SDS011;41294;42.666;23.350;2024-01-30T05:18:46;13.13;;;5.30;;
55423;SDS011;41294;42.666;23.350;2024-01-30T05:21:11;8.23;;;4.30;;
55423;SDS011;41294;42.666;23.350;2024-01-30T05:23:37;9.60;;;5.03;;
55423;SDS011;41294;42.666;23.350;2024-01-30T05:26:02;8.40;;;4.57;;
55423;SDS011;41294;42.666;23.350;2024-01-30T05:28:29;8.13;;;6.00;;
55423;SDS011;41294;42.666;23.350;2024-01-30T05:30:55;7.17;;;5.33;;
55423;SDS011;41294;42.666;23.350;2024-01-30T05:33:21;6.80;;;4.57;;
55423;SDS011;41294;42.666;23.350;2024-01-30T05:35:46;9.67;;;5.00;;
55423;SDS011;41294;42.666;23.350;2024-01-30T05:38:12;5.43;;;4.20;;
55423;SDS011;41294;42.666;23.350;2024-01-30T05:40:37;13.07;;;4.30;;
55423;SDS011;41294;42.666;23.350;2024-01-30T05:43:03;12.70;;;4.93;;
55423;SDS011;41294;42.666;23.350;2024-01-30T05:45:28;13.87;;;5.33;;
55423;SDS011;41294;42.666;23.350;2024-01-30T05:47:54;6.17;;;4.60;;
55423;SDS011;41294;42.666;23.350;2024-01-30T05:50:19;13.27;;;4.50;;
55423;SDS011;41294;42.666;23.350;2024-01-30T05:52:45;10.63;;;5.27;;
55423;SDS011;41294;42.666;23.350;2024-01-30T05:55:11;9.90;;;4.50;;
55423;SDS011;41294;42.666;23.350;2024-01-30T05:57:37;13.13;;;5.60;;
55423;SDS011;41294;42.666;23.350;2024-01-30T06:00:04;10.20;;;5.13;;
55423;SDS011;41294;42.666;23.350;2024-01-30T06:02:30;12.30;;;5.57;;
55423;SDS011;41294;42.666;23.350;2024-01-30T06:04:56;7.93;;;5.10;;
55423;SDS011;41294;42.666;23.350;2024-01-30T06:07:22;10.67;;;5.70;;
55423;SDS011;41294;42.666;23.350;2024-01-30T06:09:47;17.00;;;5.70;;
55423;SDS011;41294;42.666;23.350;2024-01-30T06:12:13;16.57;;;5.60;;
55423;SDS011;41294;42.666;23.350;2024-01-30T06:14:39;7.53;;;4.67;;
55423;SDS011;41294;42.666;23.350;2024-01-30T06:17:04;9.80;;;6.20;;
55423;SDS011;41294;42.666;23.350;2024-01-30T06:19:30;11.20;;;5.60;;
55423;SDS011;41294;42.666;23.350;2024-01-30T06:21:58;14.53;;;5.73;;
55423;SDS011;41294;42.666;23.350;2024-01-30T06:24:24;9.40;;;4.93;;
55423;SDS011;41294;42.666;23.350;2024-01-30T06:26:50;16.30;;;6.07;;
55423;SDS011;41294;42.666;23.350;2024-01-30T06:29:15;14.83;;;6.77;;
55423;SDS011;41294;42.666;23.350;2024-01-30T06:31:41;15.10;;;5.87;;
55423;SDS011;41294;42.666;23.350;2024-01-30T06:34:09;12.07;;;6.33;;
55423;SDS011;41294;42.666;23.350;2024-01-30T06:36:35;14.20;;;5.53;;
55423;SDS011;41294;42.666;23.350;2024-01-30T06:39:01;14.63;;;7.20;;
55423;SDS011;41294;42.666;23.350;2024-01-30T06:41:27;14.27;;;7.43;;
55423;SDS011;41294;42.666;23.350;2024-01-30T06:43:53;16.43;;;7.87;;
55423;SDS011;41294;42.666;23.350;2024-01-30T06:46:18;19.10;;;8.93;;
55423;SDS011;41294;42.666;23.350;2024-01-30T06:48:44;21.13;;;8.30;;
55423;SDS011;41294;42.666;23.350;2024-01-30T06:51:10;14.50;;;8.23;;
55423;SDS011;41294;42.666;23.350;2024-01-30T06:53:37;21.90;;;9.13;;
55423;SDS011;41294;42.666;23.350;2024-01-30T06:56:03;20.03;;;8.97;;
55423;SDS011;41294;42.666;23.350;2024-01-30T06:58:28;16.70;;;8.50;;
55423;SDS011;41294;42.666;23.350;2024-01-30T07:00:54;18.17;;;7.63;;
55423;SDS011;41294;42.666;23.350;2024-01-30T07:03:20;10.57;;;6.17;;
55423;SDS011;41294;42.666;23.350;2024-01-30T07:05:45;6.83;;;4.87;;
55423;SDS011;41294;42.666;23.350;2024-01-30T07:08:11;8.23;;;5.63;;
55423;SDS011;41294;42.666;23.350;2024-01-30T07:10:36;6.40;;;4.33;;
55423;SDS011;41294;42.666;23.350;2024-01-30T07:13:02;10.73;;;5.53;;
55423;SDS011;41294;42.666;23.350;2024-01-30T07:15:29;5.63;;;4.30;;
55423;SDS011;41294;42.666;23.350;2024-01-30T07:17:54;5.57;;;3.90;;
55423;SDS011;41294;42.666;23.350;2024-01-30T07:20:20;4.37;;;3.80;;
55423;SDS011;41294;42.666;23.350;2024-01-30T07:22:46;4.43;;;3.73;;
55423;SDS011;41294;42.666;23.350;2024-01-30T07:25:11;5.43;;;4.33;;
55423;SDS011;41294;42.666;23.350;2024-01-30T07:27:37;3.33;;;3.03;;
55423;SDS011;41294;42.666;23.350;2024-01-30T07:30:02;3.40;;;3.10;;
55423;SDS011;41294;42.666;23.350;2024-01-30T07:32:28;8.50;;;4.30;;
55423;SDS011;41294;42.666;23.350;2024-01-30T07:34:53;4.83;;;3.13;;
55423;SDS011;41294;42.666;23.350;2024-01-30T07:37:19;9.07;;;3.77;;
55423;SDS011;41294;42.666;23.350;2024-01-30T07:39:44;5.27;;;2.87;;
55423;SDS011;41294;42.666;23.350;2024-01-30T07:42:10;6.03;;;3.20;;
55423;SDS011;41294;42.666;23.350;2024-01-30T07:44:35;3.20;;;2.90;;
55423;SDS011;41294;42.666;23.350;2024-01-30T07:47:01;4.57;;;2.83;;
55423;SDS011;41294;42.666;23.350;2024-01-30T07:49:28;2.63;;;2.43;;
55423;SDS011;41294;42.666;23.350;2024-01-30T07:51:53;3.30;;;3.00;;
55423;SDS011;41294;42.666;23.350;2024-01-30T07:54:19;2.90;;;2.70;;
55423;SDS011;41294;42.666;23.350;2024-01-30T07:56:44;4.83;;;2.73;;
55423;SDS011;41294;42.666;23.350;2024-01-30T07:59:10;3.10;;;2.50;;
55423;SDS011;41294;42.666;23.350;2024-01-30T08:01:36;4.27;;;2.70;;
55423;SDS011;41294;42.666;23.350;2024-01-30T08:04:02;3.00;;;2.70;;
55423;SDS011;41294;42.666;23.350;2024-01-30T08:06:27;9.57;;;3.20;;
55423;SDS011;41294;42.666;23.350;2024-01-30T08:08:53;3.90;;;2.90;;
55423;SDS011;41294;42.666;23.350;2024-01-30T08:11:21;3.57;;;3.27;;
55423;SDS011;41294;42.666;23.350;2024-01-30T08:13:55;3.37;;;3.07;;
55423;SDS011;41294;42.666;23.350;2024-01-30T08:16:20;4.00;;;3.33;;
55423;SDS011;41294;42.666;23.350;2024-01-30T08:18:46;3.20;;;2.90;;
55423;SDS011;41294;42.666;23.350;2024-01-30T08:21:11;3.20;;;2.90;;
55423;SDS011;41294;42.666;23.350;2024-01-30T08:23:40;5.63;;;2.97;;
55423;SDS011;41294;42.666;23.350;2024-01-30T08:26:06;3.23;;;2.90;;
55423;SDS011;41294;42.666;23.350;2024-01-30T08:28:31;6.13;;;2.83;;
55423;SDS011;41294;42.666;23.350;2024-01-30T08:30:57;3.90;;;3.43;;
55423;SDS011;41294;42.666;23.350;2024-01-30T08:33:22;4.00;;;3.10;;
55423;SDS011;41294;42.666;23.350;2024-01-30T08:35:48;6.70;;;3.50;;
55423;SDS011;41294;42.666;23.350;2024-01-30T08:38:13;4.33;;;3.23;;
55423;SDS011;41294;42.666;23.350;2024-01-30T08:40:39;7.73;;;3.57;;
55423;SDS011;41294;42.666;23.350;2024-01-30T08:43:04;4.20;;;3.50;;
55423;SDS011;41294;42.666;23.350;2024-01-30T08:45:30;4.70;;;3.90;;
55423;SDS011;41294;42.666;23.350;2024-01-30T08:47:56;6.47;;;3.97;;
55423;SDS011;41294;42.666;23.350;2024-01-30T08:50:21;8.27;;;4.17;;
55423;SDS011;41294;42.666;23.350;2024-01-30T08:52:47;4.63;;;3.87;;
55423;SDS011;41294;42.666;23.350;2024-01-30T08:55:13;4.37;;;3.97;;
55423;SDS011;41294;42.666;23.350;2024-01-30T08:57:39;5.23;;;3.63;;
55423;SDS011;41294;42.666;23.350;2024-01-30T09:00:04;5.30;;;4.50;;
55423;SDS011;41294;42.666;23.350;2024-01-30T09:02:32;5.30;;;4.37;;
55423;SDS011;41294;42.666;23.350;2024-01-30T09:04:57;6.30;;;4.10;;
55423;SDS011;41294;42.666;23.350;2024-01-30T09:07:23;6.07;;;4.50;;
55423;SDS011;41294;42.666;23.350;2024-01-30T09:09:49;5.13;;;4.03;;
55423;SDS011;41294;42.666;23.350;2024-01-30T09:12:14;5.50;;;4.40;;
55423;SDS011;41294;42.666;23.350;2024-01-30T09:14:40;4.30;;;3.90;;
55423;SDS011;41294;42.666;23.350;2024-01-30T09:17:06;5.43;;;4.13;;
55423;SDS011;41294;42.666;23.350;2024-01-30T09:19:32;12.83;;;4.60;;
55423;SDS011;41294;42.666;23.350;2024-01-30T09:21:57;4.50;;;4.10;;
55423;SDS011;41294;42.666;23.350;2024-01-30T09:24:23;5.77;;;4.10;;
55423;SDS011;41294;42.666;23.350;2024-01-30T09:26:48;5.00;;;4.20;;
55423;SDS011;41294;42.666;23.350;2024-01-30T09:29:14;6.10;;;4.13;;
55423;SDS011;41294;42.666;23.350;2024-01-30T09:31:42;6.20;;;4.57;;
55423;SDS011;41294;42.666;23.350;2024-01-30T09:34:08;4.80;;;4.33;;
55423;SDS011;41294;42.666;23.350;2024-01-30T09:36:34;4.73;;;4.30;;
55423;SDS011;41294;42.666;23.350;2024-01-30T09:38:59;6.57;;;4.10;;
55423;SDS011;41294;42.666;23.350;2024-01-30T09:41:25;5.83;;;4.37;;
55423;SDS011;41294;42.666;23.350;2024-01-30T09:43:53;6.97;;;3.90;;
55423;SDS011;41294;42.666;23.350;2024-01-30T09:46:22;4.60;;;4.03;;
55423;SDS011;41294;42.666;23.350;2024-01-30T09:48:52;3.93;;;3.23;;
55423;SDS011;41294;42.666;23.350;2024-01-30T09:51:19;5.80;;;4.03;;
55423;SDS011;41294;42.666;23.350;2024-01-30T09:53:46;4.50;;;3.27;;
55423;SDS011;41294;42.666;23.350;2024-01-30T09:56:12;5.60;;;4.00;;
55423;SDS011;41294;42.666;23.350;2024-01-30T09:58:39;4.67;;;4.13;;
55423;SDS011;41294;42.666;23.350;2024-01-30T10:01:07;4.87;;;4.40;;
55423;SDS011;41294;42.666;23.350;2024-01-30T10:03:32;4.60;;;3.80;;
55423;SDS011;41294;42.666;23.350;2024-01-30T10:05:58;7.80;;;4.20;;
55423;SDS011;41294;42.666;23.350;2024-01-30T10:08:26;8.37;;;5.80;;
55423;SDS011;41294;42.666;23.350;2024-01-30T10:10:51;4.97;;;3.73;;
55423;SDS011;41294;42.666;23.350;2024-01-30T10:13:17;5.57;;;4.30;;
55423;SDS011;41294;42.666;23.350;2024-01-30T10:15:43;6.00;;;4.20;;
55423;SDS011;41294;42.666;23.350;2024-01-30T10:18:09;5.43;;;3.63;;
55423;SDS011;41294;42.666;23.350;2024-01-30T10:20:35;6.70;;;3.60;;
55423;SDS011;41294;42.666;23.350;2024-01-30T10:23:01;6.77;;;3.77;;
55423;SDS011;41294;42.666;23.350;2024-01-30T10:25:28;4.90;;;3.90;;
55423;SDS011;41294;42.666;23.350;2024-01-30T10:27:55;4.57;;;3.90;;
55423;SDS011;41294;42.666;23.350;2024-01-30T10:30:21;3.63;;;3.33;;
55423;SDS011;41294;42.666;23.350;2024-01-30T10:32:47;7.97;;;4.60;;
55423;SDS011;41294;42.666;23.350;2024-01-30T10:35:13;7.00;;;3.73;;
55423;SDS011;41294;42.666;23.350;2024-01-30T10:37:39;5.20;;;3.77;;
55423;SDS011;41294;42.666;23.350;2024-01-30T10:40:04;5.63;;;3.23;;
55423;SDS011;41294;42.666;23.350;2024-01-30T10:42:31;4.97;;;3.73;;
55423;SDS011;41294;42.666;23.350;2024-01-30T10:45:11;5.93;;;3.80;;
55423;SDS011;41294;42.666;23.350;2024-01-30T10:47:39;4.50;;;3.30;;
55423;SDS011;41294;42.666;23.350;2024-01-30T10:50:14;6.03;;;3.53;;
55423;SDS011;41294;42.666;23.350;2024-01-30T10:52:41;4.77;;;3.07;;
55423;SDS011;41294;42.666;23.350;2024-01-30T10:55:10;5.40;;;3.80;;
55423;SDS011;41294;42.666;23.350;2024-01-30T10:57:36;4.60;;;3.17;;
55423;SDS011;41294;42.666;23.350;2024-01-30T11:00:04;3.80;;;3.17;;
55423;SDS011;41294;42.666;23.350;2024-01-30T11:02:37;4.37;;;3.50;;
55423;SDS011;41294;42.666;23.350;2024-01-30T11:05:04;4.30;;;3.40;;
55423;SDS011;41294;42.666;23.350;2024-01-30T11:07:30;3.83;;;3.03;;
55423;SDS011;41294;42.666;23.350;2024-01-30T11:12:29;4.17;;;3.30;;
55423;SDS011;41294;42.666;23.350;2024-01-30T11:15:05;3.57;;;3.03;;
55423;SDS011;41294;42.666;23.350;2024-01-30T11:20:15;3.83;;;3.37;;
55423;SDS011;41294;42.666;23.350;2024-01-30T11:22:42;4.20;;;3.80;;
55423;SDS011;41294;42.666;23.350;2024-01-30T11:25:17;6.23;;;3.27;;
55423;SDS011;41294;42.666;23.350;2024-01-30T11:27:44;4.00;;;3.40;;
55423;SDS011;41294;42.666;23.350;2024-01-30T11:38:05;6.47;;;3.70;;
55423;SDS011;41294;42.666;23.350;2024-01-30T11:40:32;4.57;;;3.10;;
55423;SDS011;41294;42.666;23.350;2024-01-30T11:42:58;3.27;;;2.97;;
55423;SDS011;41294;42.666;23.350;2024-01-30T11:45:25;3.90;;;2.90;;
55423;SDS011;41294;42.666;23.350;2024-01-30T11:47:51;4.23;;;3.50;;
55423;SDS011;41294;42.666;23.350;2024-01-30T11:50:17;8.00;;;3.63;;
55423;SDS011;41294;42.666;23.350;2024-01-30T11:52:43;3.23;;;2.93;;
55423;SDS011;41294;42.666;23.350;2024-01-30T11:55:09;5.87;;;3.20;;
55423;SDS011;41294;42.666;23.350;2024-01-30T11:57:35;3.97;;;3.10;;
55423;SDS011;41294;42.666;23.350;2024-01-30T12:00:02;4.37;;;3.53;;
55423;SDS011;41294;42.666;23.350;2024-01-30T12:02:38;3.80;;;3.40;;
55423;SDS011;41294;42.666;23.350;2024-01-30T12:05:05;4.93;;;3.43;;
55423;SDS011;41294;42.666;23.350;2024-01-30T12:07:31;3.70;;;3.37;;
55423;SDS011;41294;42.666;23.350;2024-01-30T12:09:57;4.90;;;3.90;;
55423;SDS011;41294;42.666;23.350;2024-01-30T12:12:23;4.80;;;3.63;;
55423;SDS011;41294;42.666;23.350;2024-01-30T12:14:50;3.87;;;3.47;;
55423;SDS011;41294;42.666;23.350;2024-01-30T12:17:29;4.27;;;3.43;;
55423;SDS011;41294;42.666;23.350;2024-01-30T12:22:41;3.97;;;3.57;;
55423;SDS011;41294;42.666;23.350;2024-01-30T12:25:08;4.10;;;3.30;;
55423;SDS011;41294;42.666;23.350;2024-01-30T12:27:38;4.27;;;3.73;;
55423;SDS011;41294;42.666;23.350;2024-01-30T12:30:08;4.70;;;3.70;;
55423;SDS011;41294;42.666;23.350;2024-01-30T12:32:35;3.93;;;3.53;;
55423;SDS011;41294;42.666;23.350;2024-01-30T12:35:01;6.60;;;3.83;;
55423;SDS011;41294;42.666;23.350;2024-01-30T12:37:29;4.53;;;4.03;;
55423;SDS011;41294;42.666;23.350;2024-01-30T12:39:55;5.83;;;3.70;;
55423;SDS011;41294;42.666;23.350;2024-01-30T12:42:22;4.63;;;3.60;;
55423;SDS011;41294;42.666;23.350;2024-01-30T12:44:48;4.37;;;3.77;;
55423;SDS011;41294;42.666;23.350;2024-01-30T12:47:14;4.70;;;3.80;;
55423;SDS011;41294;42.666;23.350;2024-01-30T12:49:42;4.73;;;3.07;;
55423;SDS011;41294;42.666;23.350;2024-01-30T12:52:16;4.77;;;4.00;;
55423;SDS011;41294;42.666;23.350;2024-01-30T12:54:41;6.27;;;4.20;;
55423;SDS011;41294;42.666;23.350;2024-01-30T12:57:07;6.70;;;4.40;;
55423;SDS011;41294;42.666;23.350;2024-01-30T12:59:32;4.23;;;3.67;;
55423;SDS011;41294;42.666;23.350;2024-01-30T13:02:00;5.07;;;3.97;;
55423;SDS011;41294;42.666;23.350;2024-01-30T13:04:28;6.57;;;4.20;;
55423;SDS011;41294;42.666;23.350;2024-01-30T13:06:53;7.53;;;4.00;;
55423;SDS011;41294;42.666;23.350;2024-01-30T13:09:19;5.60;;;4.07;;
55423;SDS011;41294;42.666;23.350;2024-01-30T13:11:45;4.10;;;3.70;;
55423;SDS011;41294;42.666;23.350;2024-01-30T13:14:10;6.60;;;4.40;;
55423;SDS011;41294;42.666;23.350;2024-01-30T13:16:36;8.40;;;4.40;;
55423;SDS011;41294;42.666;23.350;2024-01-30T13:19:02;7.80;;;4.70;;
55423;SDS011;41294;42.666;23.350;2024-01-30T13:21:28;4.77;;;4.10;;
55423;SDS011;41294;42.666;23.350;2024-01-30T13:23:54;7.67;;;3.90;;
55423;SDS011;41294;42.666;23.350;2024-01-30T13:26:22;6.33;;;4.70;;
55423;SDS011;41294;42.666;23.350;2024-01-30T13:28:48;7.83;;;4.40;;
55423;SDS011;41294;42.666;23.350;2024-01-30T13:31:16;5.53;;;4.20;;
55423;SDS011;41294;42.666;23.350;2024-01-30T13:33:42;4.50;;;4.03;;
55423;SDS011;41294;42.666;23.350;2024-01-30T13:36:08;7.70;;;4.90;;
55423;SDS011;41294;42.666;23.350;2024-01-30T13:38:35;6.60;;;4.40;;
55423;SDS011;41294;42.666;23.350;2024-01-30T13:41:00;5.90;;;4.50;;
55423;SDS011;41294;42.666;23.350;2024-01-30T13:43:26;6.83;;;4.90;;
55423;SDS011;41294;42.666;23.350;2024-01-30T13:45:52;5.13;;;3.97;;
55423;SDS011;41294;42.666;23.350;2024-01-30T13:48:18;5.83;;;4.47;;
55423;SDS011;41294;42.666;23.350;2024-01-30T13:50:43;7.00;;;4.10;;
55423;SDS011;41294;42.666;23.350;2024-01-30T13:53:10;5.87;;;4.30;;
55423;SDS011;41294;42.666;23.350;2024-01-30T13:55:36;6.17;;;4.40;;
55423;SDS011;41294;42.666;23.350;2024-01-30T13:58:01;9.73;;;5.53;;
55423;SDS011;41294;42.666;23.350;2024-01-30T14:00:27;5.77;;;4.70;;
55423;SDS011;41294;42.666;23.350;2024-01-30T14:02:52;6.47;;;4.50;;
55423;SDS011;41294;42.666;23.350;2024-01-30T14:05:22;5.00;;;4.40;;
55423;SDS011;41294;42.666;23.350;2024-01-30T14:07:48;6.17;;;4.53;;
55423;SDS011;41294;42.666;23.350;2024-01-30T14:10:15;6.33;;;4.20;;
55423;SDS011;41294;42.666;23.350;2024-01-30T14:12:41;5.23;;;4.40;;
55423;SDS011;41294;42.666;23.350;2024-01-30T14:15:07;5.53;;;4.80;;
55423;SDS011;41294;42.666;23.350;2024-01-30T14:17:35;6.87;;;4.87;;
55423;SDS011;41294;42.666;23.350;2024-01-30T14:20:01;6.97;;;4.53;;
55423;SDS011;41294;42.666;23.350;2024-01-30T14:22:28;7.30;;;4.47;;
55423;SDS011;41294;42.666;23.350;2024-01-30T14:24:53;7.23;;;4.67;;
55423;SDS011;41294;42.666;23.350;2024-01-30T14:27:19;6.43;;;4.33;;
55423;SDS011;41294;42.666;23.350;2024-01-30T14:29:44;6.67;;;4.87;;
55423;SDS011;41294;42.666;23.350;2024-01-30T14:32:10;7.30;;;4.70;;
55423;SDS011;41294;42.666;23.350;2024-01-30T14:34:35;7.40;;;4.67;;
55423;SDS011;41294;42.666;23.350;2024-01-30T14:37:01;5.93;;;5.10;;
55423;SDS011;41294;42.666;23.350;2024-01-30T14:39:26;7.90;;;4.80;;
55423;SDS011;41294;42.666;23.350;2024-01-30T14:41:52;6.57;;;5.00;;